createdAt,value
2023-05-15T00:00:34.269Z,3.55
2023-05-15T00:03:37.991Z,3.70
2023-05-15T00:06:41.935Z,3.70
2023-05-15T00:09:45.278Z,3.72
2023-05-15T00:12:48.678Z,3.53
2023-05-15T00:15:52.033Z,3.70
2023-05-15T00:18:55.548Z,3.50
2023-05-15T00:21:58.853Z,3.30
2023-05-15T00:25:02.121Z,3.83
2023-05-15T00:28:05.588Z,3.60
2023-05-15T00:31:09.054Z,3.53
2023-05-15T00:34:12.489Z,3.53
2023-05-15T00:37:16.235Z,3.10
2023-05-15T00:40:24.084Z,3.33
2023-05-15T00:43:29.600Z,3.10
2023-05-15T00:46:34.912Z,3.30
2023-05-15T00:49:38.948Z,3.60
2023-05-15T00:52:43.567Z,3.33
2023-05-15T00:55:48.142Z,3.40
2023-05-15T00:58:52.199Z,3.30
2023-05-15T01:01:55.814Z,3.55
2023-05-15T01:04:59.246Z,3.17
2023-05-15T01:08:07.844Z,3.05
2023-05-15T01:11:13.118Z,2.97
2023-05-15T01:14:16.479Z,3.10
2023-05-15T01:17:19.799Z,3.00
2023-05-15T01:20:23.687Z,3.00
2023-05-15T01:23:36.501Z,3.33
2023-05-15T01:27:07.392Z,3.45
2023-05-15T01:30:22.567Z,3.20
2023-05-15T01:33:34.591Z,2.92
2023-05-15T01:36:48.309Z,2.90
2023-05-15T01:39:56.934Z,2.58
2023-05-15T01:43:06.487Z,2.78
2023-05-15T01:46:12.701Z,2.90
2023-05-15T01:49:19.309Z,2.90
2023-05-15T01:52:36.953Z,3.08
2023-05-15T01:55:41.573Z,3.08
2023-05-15T01:58:45.370Z,3.08
2023-05-15T02:01:50.586Z,2.70
2023-05-15T02:04:55.584Z,2.92
2023-05-15T02:07:59.420Z,2.60
2023-05-15T02:11:03.623Z,2.80
2023-05-15T02:14:09.315Z,3.10
2023-05-15T02:17:12.813Z,2.50
2023-05-15T02:20:16.295Z,2.67
2023-05-15T02:23:20.687Z,2.90
2023-05-15T02:26:42.783Z,2.80
2023-05-15T02:30:04.470Z,3.00
2023-05-15T02:33:48.876Z,2.83
2023-05-15T02:36:54.591Z,3.08
2023-05-15T02:40:00.343Z,2.75
2023-05-15T02:43:05.126Z,3.15
2023-05-15T02:46:09.245Z,2.88
2023-05-15T02:49:13.617Z,3.00
2023-05-15T02:52:17.865Z,2.97
2023-05-15T02:55:21.456Z,2.90
2023-05-15T02:58:24.827Z,3.08
2023-05-15T03:01:28.235Z,3.10
2023-05-15T03:04:31.971Z,2.67
2023-05-15T03:07:35.556Z,3.10
2023-05-15T03:10:39.049Z,2.90
2023-05-15T03:13:42.366Z,2.90
2023-05-15T03:16:45.786Z,3.22
2023-05-15T03:19:49.184Z,2.83
2023-05-15T03:22:52.620Z,3.35
2023-05-15T03:25:56.027Z,3.08
2023-05-15T03:29:01.028Z,3.30
2023-05-15T03:32:04.520Z,3.15
2023-05-15T03:35:08.301Z,3.03
2023-05-15T03:38:11.705Z,3.00
2023-05-15T03:41:16.069Z,2.80
2023-05-15T03:44:19.405Z,2.88
2023-05-15T03:47:23.643Z,2.78
2023-05-15T03:50:29.584Z,2.80
2023-05-15T03:53:35.996Z,2.95
2023-05-15T03:56:39.455Z,3.05
2023-05-15T03:59:42.856Z,2.70
2023-05-15T04:02:46.327Z,3.30
2023-05-15T04:05:50.347Z,2.93
2023-05-15T04:08:53.670Z,3.08
2023-05-15T04:11:56.976Z,3.42
2023-05-15T04:15:17.274Z,3.28
2023-05-15T04:18:21.030Z,2.95
2023-05-15T04:21:24.389Z,3.07
2023-05-15T04:24:27.671Z,3.10
2023-05-15T04:27:30.978Z,2.90
2023-05-15T04:30:34.379Z,2.88
2023-05-15T04:33:39.284Z,2.97
2023-05-15T04:36:43.052Z,3.00
2023-05-15T04:39:46.584Z,2.78
2023-05-15T04:42:49.908Z,2.88
2023-05-15T04:45:53.278Z,2.85
2023-05-15T04:48:56.591Z,2.90
2023-05-15T04:51:59.941Z,2.70
2023-05-15T04:55:03.628Z,3.00
2023-05-15T04:58:07.211Z,2.67
2023-05-15T05:01:10.592Z,2.70
2023-05-15T05:04:14.898Z,3.50
2023-05-15T05:07:18.524Z,2.80
2023-05-15T05:10:21.867Z,2.80
2023-05-15T05:13:25.235Z,2.83
2023-05-15T05:16:28.562Z,2.90
2023-05-15T05:19:31.896Z,3.08
2023-05-15T05:22:35.186Z,3.00
2023-05-15T05:25:38.660Z,3.00
2023-05-15T05:28:41.918Z,3.00
2023-05-15T05:31:47.435Z,2.72
2023-05-15T05:34:50.746Z,3.05
2023-05-15T05:37:53.995Z,3.60
2023-05-15T05:40:57.589Z,3.63
2023-05-15T05:44:01.916Z,3.55
2023-05-15T05:47:05.825Z,3.33
2023-05-15T05:50:09.754Z,3.55
2023-05-15T05:53:13.269Z,3.80
2023-05-15T05:56:17.200Z,3.90
2023-05-15T05:59:20.639Z,3.70
2023-05-15T06:02:24.274Z,3.65
2023-05-15T06:05:29.344Z,3.63
2023-05-15T06:08:32.596Z,4.00
2023-05-15T06:11:35.977Z,3.90
2023-05-15T06:14:39.721Z,4.25
2023-05-15T06:17:43.466Z,4.30
2023-05-15T06:20:47.032Z,4.40
2023-05-15T06:23:51.507Z,4.37
2023-05-15T06:26:55.431Z,4.07
2023-05-15T06:29:58.772Z,4.63
2023-05-15T06:33:02.059Z,4.22
2023-05-15T06:36:05.548Z,4.80
2023-05-15T06:39:10.884Z,4.20
2023-05-15T06:42:15.478Z,4.80
2023-05-15T06:45:19.056Z,4.53
2023-05-15T06:48:22.407Z,4.38
2023-05-15T06:51:25.757Z,4.40
2023-05-15T06:54:28.995Z,3.97
2023-05-15T06:57:33.705Z,3.90
2023-05-15T07:00:36.952Z,4.30
2023-05-15T07:03:40.323Z,4.20
2023-05-15T07:06:44.793Z,3.85
2023-05-15T07:09:50.521Z,3.80
2023-05-15T07:12:55.412Z,4.10
2023-05-15T07:15:59.579Z,4.05
2023-05-15T07:19:03.727Z,3.67
2023-05-15T07:22:08.864Z,3.47
2023-05-15T07:25:13.209Z,3.60
2023-05-15T07:28:17.983Z,4.40
2023-05-15T07:31:21.794Z,4.20
2023-05-15T07:34:25.222Z,4.65
2023-05-15T07:37:28.531Z,3.67
2023-05-15T07:40:31.925Z,3.77
2023-05-15T07:43:36.105Z,3.78
2023-05-15T07:46:39.481Z,4.25
2023-05-15T07:49:42.799Z,3.85
2023-05-15T07:52:46.172Z,4.03
2023-05-15T07:55:49.525Z,3.80
2023-05-15T07:58:54.194Z,3.17
2023-05-15T08:01:57.591Z,3.50
2023-05-15T08:05:00.988Z,3.40
2023-05-15T08:08:04.328Z,2.97
2023-05-15T08:11:07.605Z,3.27
2023-05-15T08:14:12.422Z,3.35
2023-05-15T08:17:17.226Z,3.70
2023-05-15T08:20:20.841Z,3.30
2023-05-15T08:23:24.152Z,3.50
2023-05-15T08:26:27.572Z,3.50
2023-05-15T08:29:30.822Z,3.05
2023-05-15T08:32:34.321Z,3.17
2023-05-15T08:35:37.952Z,3.42
2023-05-15T08:38:41.170Z,3.67
2023-05-15T08:42:00.714Z,3.20
2023-05-15T08:45:05.305Z,3.03
2023-05-15T08:48:14.306Z,2.95
2023-05-15T08:51:18.981Z,3.30
2023-05-15T08:54:22.853Z,3.50
2023-05-15T08:57:28.265Z,2.93
2023-05-15T09:00:32.445Z,2.97
2023-05-15T09:03:36.446Z,3.53
2023-05-15T09:06:41.385Z,3.63
2023-05-15T09:09:48.995Z,3.10
2023-05-15T09:12:53.867Z,3.30
2023-05-15T09:15:59.299Z,3.10
2023-05-15T09:19:07.787Z,3.20
2023-05-15T09:22:26.837Z,3.30
2023-05-15T09:25:42.088Z,3.33
2023-05-15T09:28:47.280Z,3.50
2023-05-15T09:31:50.872Z,3.25
2023-05-15T09:34:54.414Z,2.97
2023-05-15T09:38:02.097Z,3.30
2023-05-15T09:41:07.057Z,3.63
2023-05-15T09:44:21.813Z,3.70
2023-05-15T09:47:25.548Z,3.00
2023-05-15T09:50:37.539Z,3.08
2023-05-15T09:53:41.179Z,3.03
2023-05-15T09:56:46.898Z,3.72
2023-05-15T09:59:51.010Z,3.37
2023-05-15T10:02:57.851Z,3.38
2023-05-15T10:06:05.073Z,3.20
2023-05-15T10:09:10.556Z,3.40
2023-05-15T10:12:14.080Z,3.58
2023-05-15T10:15:19.528Z,3.30
2023-05-15T10:18:26.237Z,3.22
2023-05-15T10:21:31.087Z,3.80
2023-05-15T10:24:34.996Z,3.17
2023-05-15T10:27:40.545Z,3.20
2023-05-15T10:30:44.236Z,3.30
2023-05-15T10:33:48.914Z,3.30
2023-05-15T10:36:52.771Z,3.38
2023-05-15T10:39:57.588Z,3.65
2023-05-15T10:43:04.264Z,3.20
2023-05-15T10:46:08.861Z,3.43
2023-05-15T10:49:12.361Z,4.72
2023-05-15T10:52:16.762Z,12.90
2023-05-15T10:55:20.416Z,4.93
2023-05-15T10:58:24.639Z,3.80
2023-05-15T11:01:33.160Z,3.83
2023-05-15T11:04:38.415Z,6.40
2023-05-15T11:07:42.081Z,4.97
2023-05-15T11:10:45.448Z,3.60
2023-05-15T11:14:08.601Z,3.90
2023-05-15T11:17:15.328Z,4.00
2023-05-15T11:20:19.240Z,3.97
2023-05-15T11:23:23.919Z,4.75
2023-05-15T11:26:34.101Z,4.00
2023-05-15T11:29:37.398Z,4.10
2023-05-15T11:32:58.440Z,4.27
2023-05-15T11:36:04.857Z,4.40
2023-05-15T11:39:11.998Z,4.95
2023-05-15T11:42:15.718Z,4.90
2023-05-15T11:45:19.159Z,4.60
2023-05-15T11:48:24.926Z,5.00
2023-05-15T11:51:30.388Z,4.65
2023-05-15T11:54:34.554Z,4.88
2023-05-15T11:57:38.991Z,4.93
2023-05-15T12:00:43.475Z,5.88
2023-05-15T12:03:49.189Z,5.50
2023-05-15T12:06:52.640Z,5.32
2023-05-15T12:09:55.943Z,5.82
2023-05-15T12:12:59.841Z,6.68
2023-05-15T12:16:04.608Z,5.88
2023-05-15T12:19:08.206Z,4.87
2023-05-15T12:22:11.739Z,5.38
2023-05-15T12:25:16.317Z,6.32
2023-05-15T12:28:20.028Z,5.95
2023-05-15T12:31:24.371Z,6.85
2023-05-15T12:34:29.861Z,6.20
2023-05-15T12:37:36.206Z,5.85
2023-05-15T12:40:39.604Z,7.28
2023-05-15T12:43:43.328Z,8.20
2023-05-15T12:46:47.560Z,7.80
2023-05-15T12:49:51.110Z,7.63
2023-05-15T12:52:58.817Z,6.75
2023-05-15T12:56:02.878Z,5.82
2023-05-15T12:59:06.284Z,5.57
2023-05-15T13:02:13.980Z,5.50
2023-05-15T13:05:18.011Z,6.73
2023-05-15T13:08:21.837Z,6.90
2023-05-15T13:11:31.707Z,6.75
2023-05-15T13:14:35.522Z,6.65
2023-05-15T13:17:40.516Z,7.00
2023-05-15T13:20:49.461Z,6.77
2023-05-15T13:23:53.527Z,6.75
2023-05-15T13:26:56.856Z,6.03
2023-05-15T13:30:00.133Z,6.00
2023-05-15T13:33:05.075Z,6.30
2023-05-15T13:36:08.840Z,5.90
2023-05-15T13:39:17.386Z,5.13
2023-05-15T13:42:29.398Z,5.78
2023-05-15T13:45:36.960Z,6.45
2023-05-15T13:48:41.605Z,6.38
2023-05-15T13:51:45.116Z,6.73
2023-05-15T13:54:48.438Z,6.20
2023-05-15T13:57:55.606Z,5.53
2023-05-15T14:00:59.530Z,5.65
2023-05-15T14:04:02.776Z,5.75
2023-05-15T14:07:06.277Z,5.10
2023-05-15T14:10:10.498Z,5.45
2023-05-15T14:13:13.840Z,5.65
2023-05-15T14:16:17.182Z,6.20
2023-05-15T14:19:20.646Z,5.38
2023-05-15T14:22:25.169Z,6.00
2023-05-15T14:25:28.647Z,5.97
2023-05-15T14:28:32.046Z,7.85
2023-05-15T14:31:35.641Z,7.38
2023-05-15T14:34:39.015Z,7.72
2023-05-15T14:37:43.430Z,9.93
2023-05-15T14:40:46.698Z,15.98
2023-05-15T14:43:50.029Z,6.80
2023-05-15T14:47:07.785Z,7.07
2023-05-15T14:50:11.216Z,8.73
2023-05-15T14:53:14.592Z,7.10
2023-05-15T14:56:17.900Z,6.20
2023-05-15T14:59:21.194Z,5.63
2023-05-15T15:02:24.558Z,5.82
2023-05-15T15:05:28.190Z,5.97
2023-05-15T15:08:31.570Z,5.30
2023-05-15T15:11:34.933Z,5.00
2023-05-15T15:14:38.296Z,5.40
2023-05-15T15:17:41.642Z,6.18
2023-05-15T15:20:44.979Z,5.13
2023-05-15T15:23:48.599Z,5.13
2023-05-15T15:26:51.914Z,5.00
2023-05-15T15:29:55.212Z,4.68
2023-05-15T15:32:59.094Z,4.70
2023-05-15T15:36:02.449Z,4.80
2023-05-15T15:39:05.797Z,4.87
2023-05-15T15:42:09.182Z,5.10
2023-05-15T15:45:12.516Z,4.78
2023-05-15T15:48:15.918Z,4.95
2023-05-15T15:51:19.320Z,4.35
2023-05-15T15:54:22.673Z,4.70
2023-05-15T15:57:27.952Z,4.85
2023-05-15T16:00:31.308Z,4.90
2023-05-15T16:03:34.754Z,4.70
2023-05-15T16:06:38.204Z,4.47
2023-05-15T16:09:41.537Z,4.73
2023-05-15T16:12:45.786Z,4.90
2023-05-15T16:15:49.093Z,4.78
2023-05-15T16:18:52.411Z,4.72
2023-05-15T16:21:55.976Z,4.90
2023-05-15T16:24:59.350Z,5.80
2023-05-15T16:28:02.684Z,5.80
2023-05-15T16:31:06.067Z,6.68
2023-05-15T16:34:09.755Z,6.45
2023-05-15T16:37:13.057Z,6.32
2023-05-15T16:40:16.563Z,6.60
2023-05-15T16:43:21.963Z,6.10
2023-05-15T16:46:25.496Z,6.22
2023-05-15T16:49:28.892Z,6.10
2023-05-15T16:52:32.336Z,5.30
2023-05-15T16:55:35.785Z,5.57
2023-05-15T16:58:41.846Z,5.10
2023-05-15T17:01:46.258Z,5.50
2023-05-15T17:04:49.634Z,6.22
2023-05-15T17:07:52.912Z,6.13
2023-05-15T17:10:56.341Z,5.80
2023-05-15T17:13:59.687Z,5.57
2023-05-15T17:17:03.019Z,5.68
2023-05-15T17:20:07.153Z,5.90
2023-05-15T17:23:10.555Z,7.32
2023-05-15T17:26:13.880Z,6.77
2023-05-15T17:29:17.219Z,6.72
2023-05-15T17:32:21.253Z,7.32
2023-05-15T17:35:24.965Z,7.60
2023-05-15T17:38:28.471Z,7.38
2023-05-15T17:41:31.856Z,9.37
2023-05-15T17:44:35.285Z,7.13
2023-05-15T17:47:38.755Z,7.50
2023-05-15T17:50:42.315Z,6.38
2023-05-15T17:53:45.839Z,6.43
2023-05-15T17:56:49.355Z,6.90
2023-05-15T17:59:52.707Z,6.90
2023-05-15T18:02:56.321Z,7.35
2023-05-15T18:05:59.815Z,6.80
2023-05-15T18:09:03.427Z,6.82
2023-05-15T18:12:07.087Z,7.30
2023-05-15T18:15:10.920Z,7.45
2023-05-15T18:18:14.413Z,8.15
2023-05-15T18:21:18.122Z,7.75
2023-05-15T18:24:21.441Z,8.32
2023-05-15T18:27:24.853Z,7.90
2023-05-15T18:30:28.149Z,8.38
2023-05-15T18:33:33.011Z,8.40
2023-05-15T18:36:36.354Z,8.30
2023-05-15T18:39:39.915Z,8.23
2023-05-15T18:42:43.238Z,8.67
2023-05-15T18:45:46.731Z,8.13
2023-05-15T18:48:50.191Z,8.30
2023-05-15T18:51:53.558Z,8.20
2023-05-15T18:54:57.808Z,8.95
2023-05-15T18:58:01.183Z,9.60
2023-05-15T19:01:04.572Z,9.43
2023-05-15T19:04:09.296Z,10.30
2023-05-15T19:07:12.654Z,9.15
2023-05-15T19:10:16.048Z,8.95
2023-05-15T19:13:19.427Z,9.27
2023-05-15T19:16:26.997Z,8.75
2023-05-15T19:19:30.561Z,9.13
2023-05-15T19:22:33.911Z,8.57
2023-05-15T19:25:37.212Z,8.57
2023-05-15T19:28:40.569Z,8.90
2023-05-15T19:31:44.250Z,8.93
2023-05-15T19:34:48.975Z,9.60
2023-05-15T19:37:52.360Z,9.82
2023-05-15T19:40:58.756Z,9.65
2023-05-15T19:44:02.209Z,11.30
2023-05-15T19:47:05.682Z,11.88
2023-05-15T19:50:10.716Z,12.32
2023-05-15T19:53:14.781Z,11.55
2023-05-15T19:56:21.576Z,10.35
2023-05-15T19:59:24.854Z,10.90
2023-05-15T20:02:28.367Z,10.65
2023-05-15T20:05:31.915Z,12.98
2023-05-15T20:08:35.371Z,11.40
2023-05-15T20:11:38.684Z,10.95
2023-05-15T20:14:42.501Z,11.17
2023-05-15T20:17:46.039Z,12.15
2023-05-15T20:20:49.887Z,14.15
2023-05-15T20:23:53.280Z,14.02
2023-05-15T20:26:56.683Z,12.68
2023-05-15T20:30:01.169Z,12.03
2023-05-15T20:33:04.719Z,11.45
2023-05-15T20:36:08.248Z,12.23
2023-05-15T20:39:11.636Z,12.48
2023-05-15T20:42:14.902Z,12.35
2023-05-15T20:45:18.749Z,13.53
2023-05-15T20:48:22.193Z,12.82
2023-05-15T20:51:25.680Z,13.20
2023-05-15T20:54:29.215Z,14.45
2023-05-15T20:57:32.568Z,14.73
2023-05-15T21:00:36.452Z,14.23
2023-05-15T21:03:39.975Z,12.20
2023-05-15T21:06:43.376Z,13.55
2023-05-15T21:09:47.137Z,12.80
2023-05-15T21:12:51.108Z,12.30
2023-05-15T21:15:54.498Z,11.33
2023-05-15T21:18:57.929Z,11.70
2023-05-15T21:22:01.270Z,11.68
2023-05-15T21:25:04.883Z,12.25
2023-05-15T21:28:08.345Z,11.85
2023-05-15T21:31:12.314Z,12.37
2023-05-15T21:34:15.834Z,12.68
2023-05-15T21:37:19.412Z,12.55
2023-05-15T21:40:22.900Z,11.65
2023-05-15T21:43:26.541Z,11.18
2023-05-15T21:46:29.890Z,10.90
2023-05-15T21:49:33.324Z,11.45
2023-05-15T21:52:36.721Z,11.02
2023-05-15T21:55:40.083Z,11.43
2023-05-15T21:58:43.585Z,11.60
2023-05-15T22:01:47.047Z,11.73
2023-05-15T22:04:50.570Z,11.00
2023-05-15T22:07:53.863Z,11.32
2023-05-15T22:10:57.250Z,10.20
2023-05-15T22:14:00.550Z,10.90
2023-05-15T22:17:04.043Z,11.23
2023-05-15T22:20:11.482Z,11.35
2023-05-15T22:23:15.104Z,11.20
2023-05-15T22:26:20.472Z,11.75
2023-05-15T22:29:24.265Z,12.32
2023-05-15T22:32:27.669Z,11.13
2023-05-15T22:35:30.999Z,11.15
2023-05-15T22:38:34.353Z,10.95
2023-05-15T22:41:37.769Z,11.35
2023-05-15T22:44:41.180Z,11.05
2023-05-15T22:47:45.792Z,10.07
2023-05-15T22:50:49.545Z,10.55
2023-05-15T22:53:52.926Z,11.25
2023-05-15T22:56:56.459Z,9.98
2023-05-15T22:59:59.771Z,10.02
2023-05-15T23:03:03.158Z,10.57
2023-05-15T23:06:06.786Z,10.23
2023-05-15T23:09:10.212Z,10.52
2023-05-15T23:12:13.627Z,10.85
2023-05-15T23:15:17.652Z,11.02
2023-05-15T23:18:21.135Z,11.90
2023-05-15T23:21:24.839Z,10.90
2023-05-15T23:24:28.158Z,10.68
2023-05-15T23:27:31.655Z,11.88
2023-05-15T23:30:35.011Z,12.07
2023-05-15T23:33:38.356Z,10.97
2023-05-15T23:36:41.812Z,11.10
2023-05-15T23:39:45.280Z,10.48
2023-05-15T23:42:48.860Z,11.43
2023-05-15T23:45:52.140Z,11.48
2023-05-15T23:48:55.517Z,11.20
2023-05-15T23:51:58.948Z,11.93
2023-05-15T23:55:02.262Z,11.25
2023-05-15T23:58:05.710Z,11.93
